Time;durP1;ratioP1;P1;durP2;ratioP2;P2;SDS_P1;SDS_P2;PMS_P1;PMS_P2;Temp;Humidity;BMP_temperature;BMP_pressure;BME280_temperature;BME280_humidity;BME280_pressure;Samples;Min_cycle;Max_cycle;Signal;HPM_P1;HPM_P2
2022/09/24 00:00:56;;;;;;;37.40;30.90;;;14.20;99.90;;;;;;5074603;28;20392;-80
2022/09/24 00:03:24;;;;;;;37.92;31.75;;;14.30;99.90;;;;;;5058139;28;20051;-80
2022/09/24 00:05:51;;;;;;;38.35;30.42;;;14.20;99.90;;;;;;5072965;28;20041;-80
2022/09/24 00:08:18;;;;;;;37.70;29.90;;;14.20;99.90;;;;;;5062959;28;20040;-79
2022/09/24 00:10:45;;;;;;;39.33;30.65;;;14.20;99.90;;;;;;5075593;28;20062;-80
2022/09/24 00:13:14;;;;;;;41.72;31.25;;;14.20;99.90;;;;;;5074221;28;20120;-79
2022/09/24 00:15:43;;;;;;;39.85;30.50;;;14.20;99.90;;;;;;5059317;28;20036;-80
2022/09/24 00:18:10;;;;;;;39.47;30.55;;;14.20;99.90;;;;;;5075748;28;20031;-79
2022/09/24 00:20:36;;;;;;;39.50;30.38;;;14.10;99.90;;;;;;5058680;28;20119;-80
2022/09/24 00:23:02;;;;;;;38.10;31.35;;;14.20;99.90;;;;;;5056977;28;20086;-80
2022/09/24 00:28:13;;;;;;;35.83;31.05;;;14.10;99.90;;;;;;5058159;28;20051;-79
2022/09/24 00:30:40;;;;;;;38.70;29.80;;;14.20;99.90;;;;;;5039542;28;20381;-79
2022/09/24 00:33:07;;;;;;;40.63;31.52;;;14.10;99.90;;;;;;5038251;28;20037;-80
2022/09/24 00:35:33;;;;;;;38.95;30.73;;;14.10;99.90;;;;;;5053564;28;20032;-79
2022/09/24 00:37:59;;;;;;;39.97;31.55;;;14.10;99.90;;;;;;5069700;28;20036;-80
2022/09/24 00:40:33;;;;;;;39.03;31.13;;;14.10;99.90;;;;;;5039018;28;20051;-80
2022/09/24 00:42:59;;;;;;;40.55;32.05;;;14.10;99.90;;;;;;5050034;28;20051;-80
2022/09/24 00:45:28;;;;;;;44.15;32.75;;;14.10;99.90;;;;;;5067787;28;20037;-80
2022/09/24 00:47:54;;;;;;;39.20;31.42;;;14.20;99.90;;;;;;5057943;28;20655;-79
2022/09/24 00:50:22;;;;;;;42.63;31.02;;;14.10;99.90;;;;;;5038920;28;20047;-80
2022/09/24 00:52:57;;;;;;;35.88;28.70;;;14.10;99.90;;;;;;5073344;28;20032;-79
2022/09/24 00:55:23;;;;;;;39.30;31.05;;;14.10;99.90;;;;;;5060140;28;20064;-80
2022/09/24 00:57:55;;;;;;;39.10;31.45;;;14.10;99.90;;;;;;5053633;28;20039;-79
2022/09/24 01:00:21;;;;;;;40.13;31.25;;;14.30;99.90;;;;;;5062910;28;20480;-80
2022/09/24 01:02:52;;;;;;;37.67;31.45;;;14.10;99.90;;;;;;5061306;28;20523;-80
2022/09/24 01:05:18;;;;;;;42.17;31.63;;;14.10;99.90;;;;;;5062044;28;20361;-79
2022/09/24 01:07:47;;;;;;;42.22;32.45;;;14.10;99.90;;;;;;5063260;28;20055;-80
2022/09/24 01:10:46;;;;;;;40.95;31.90;;;14.00;99.90;;;;;;5069270;28;20055;-80
2022/09/24 01:13:10;;;;;;;41.88;32.78;;;14.10;99.90;;;;;;5059676;28;20051;-80
2022/09/24 01:15:46;;;;;;;39.30;30.98;;;13.90;99.90;;;;;;5069370;28;20070;-80
2022/09/24 01:18:31;;;;;;;38.10;30.80;;;14.10;99.90;;;;;;5074012;28;20044;-79
2022/09/24 01:21:03;;;;;;;42.17;33.17;;;14.00;99.90;;;;;;5072560;28;20070;-79
2022/09/24 01:23:53;;;;;;;44.42;32.47;;;14.00;99.90;;;;;;5062207;28;20036;-80
2022/09/24 01:26:39;;;;;;;37.55;29.35;;;14.00;99.90;;;;;;5062067;28;20048;-79
2022/09/24 01:29:26;;;;;;;40.60;31.00;;;14.00;99.90;;;;;;5078292;28;20468;-79
2022/09/24 01:31:59;;;;;;;44.40;33.05;;;14.00;99.90;;;;;;5072032;28;20047;-80
2022/09/24 01:34:28;;;;;;;39.65;31.83;;;14.00;99.90;;;;;;5075945;28;20044;-80
2022/09/24 01:36:56;;;;;;;40.28;33.03;;;14.00;99.90;;;;;;5072454;28;20036;-80
2022/09/24 01:39:22;;;;;;;42.78;33.65;;;14.00;99.90;;;;;;5070340;28;20056;-79
2022/09/24 01:41:49;;;;;;;42.83;33.17;;;14.00;99.90;;;;;;5055933;28;20135;-80
2022/09/24 01:44:17;;;;;;;48.67;35.25;;;14.00;99.90;;;;;;5044889;28;20044;-79
2022/09/24 01:46:43;;;;;;;43.72;35.35;;;13.90;99.90;;;;;;5039561;28;20051;-79
2022/09/24 01:49:09;;;;;;;44.72;35.17;;;14.00;99.90;;;;;;5044744;28;20553;-80
2022/09/24 01:51:48;;;;;;;42.03;33.30;;;14.00;99.90;;;;;;5075050;28;20047;-80
2022/09/24 01:54:37;;;;;;;44.58;33.72;;;13.90;99.90;;;;;;5059886;28;20496;-79
2022/09/24 01:57:30;;;;;;;43.03;34.20;;;13.90;99.90;;;;;;5071049;28;20048;-80
2022/09/24 02:00:01;;;;;;;44.10;33.15;;;13.90;99.90;;;;;;5050260;28;20032;-79
2022/09/24 02:02:45;;;;;;;45.70;34.03;;;13.90;99.90;;;;;;5047833;28;20051;-80
2022/09/24 02:05:29;;;;;;;43.35;32.20;;;13.90;99.90;;;;;;5054050;28;20101;-80
2022/09/24 02:08:10;;;;;;;46.42;34.55;;;13.90;99.90;;;;;;5059248;28;20042;-80
2022/09/24 02:10:46;;;;;;;44.97;33.47;;;13.90;99.90;;;;;;5049039;28;20043;-80
2022/09/24 02:13:14;;;;;;;41.80;32.85;;;13.90;99.90;;;;;;5072605;28;20395;-80
2022/09/24 02:15:43;;;;;;;45.08;33.30;;;13.90;99.90;;;;;;5073727;28;20614;-79
2022/09/24 02:18:15;;;;;;;43.20;32.60;;;13.80;99.90;;;;;;5072060;28;20463;-80
2022/09/24 02:20:43;;;;;;;42.15;32.05;;;13.80;99.90;;;;;;5060004;28;20039;-79
2022/09/24 02:23:10;;;;;;;45.13;32.40;;;13.80;99.90;;;;;;5063505;28;20040;-80
2022/09/24 02:25:52;;;;;;;42.90;33.38;;;13.80;99.90;;;;;;5092327;28;20044;-79
2022/09/24 02:28:18;;;;;;;43.22;31.15;;;13.80;99.90;;;;;;5079012;28;20039;-80
2022/09/24 02:31:11;;;;;;;43.92;31.67;;;13.80;99.90;;;;;;5070924;28;20040;-79
2022/09/24 02:36:25;;;;;;;42.75;32.28;;;13.80;99.90;;;;;;5091362;28;20037;-79
2022/09/24 02:38:51;;;;;;;41.50;33.03;;;13.80;99.90;;;;;;5069056;28;20047;-83
2022/09/24 02:41:22;;;;;;;43.75;32.90;;;13.80;99.90;;;;;;5068420;28;20074;-84
2022/09/24 02:43:49;;;;;;;41.13;32.17;;;13.80;99.90;;;;;;5077418;28;20095;-84
2022/09/24 02:46:15;;;;;;;48.38;34.95;;;13.80;99.90;;;;;;5064188;28;20360;-84
2022/09/24 02:48:40;;;;;;;44.65;32.40;;;13.80;99.90;;;;;;5064953;28;20034;-84
2022/09/24 02:51:07;;;;;;;44.80;34.00;;;13.80;99.90;;;;;;5068986;28;20040;-84
2022/09/24 02:53:33;;;;;;;45.38;33.35;;;13.80;99.90;;;;;;5066396;28;20032;-84
2022/09/24 02:55:59;;;;;;;43.25;33.40;;;13.80;99.90;;;;;;5049500;28;20051;-85
2022/09/24 02:58:26;;;;;;;43.97;34.35;;;13.80;99.90;;;;;;5071358;28;20037;-84
2022/09/24 03:00:53;;;;;;;44.70;34.67;;;13.80;99.90;;;;;;5068175;28;20522;-84
2022/09/24 03:03:21;;;;;;;44.75;33.80;;;13.80;99.90;;;;;;5063093;28;20051;-84
2022/09/24 03:05:53;;;;;;;45.53;35.22;;;13.80;99.90;;;;;;5075021;28;20044;-79
2022/09/24 03:08:23;;;;;;;46.03;35.33;;;13.80;99.90;;;;;;5040760;28;20037;-79
2022/09/24 03:10:50;;;;;;;44.58;35.22;;;13.80;99.90;;;;;;5056749;28;20044;-79
2022/09/24 03:13:17;;;;;;;46.83;35.45;;;13.80;99.90;;;;;;5054122;28;20036;-79
2022/09/24 03:15:44;;;;;;;47.30;36.42;;;13.80;99.90;;;;;;5057684;28;20052;-79
2022/09/24 03:18:10;;;;;;;46.75;34.83;;;13.80;99.90;;;;;;5068714;28;20093;-80
2022/09/24 03:20:36;;;;;;;48.80;36.05;;;13.80;99.90;;;;;;5056307;28;20041;-79
2022/09/24 03:23:02;;;;;;;49.88;36.72;;;13.80;99.90;;;;;;5033352;28;20067;-79
2022/09/24 03:25:27;;;;;;;54.25;37.38;;;13.80;99.90;;;;;;5073248;28;20036;-79
2022/09/24 03:27:53;;;;;;;45.53;35.47;;;13.80;99.90;;;;;;5040568;28;20044;-80
2022/09/24 03:33:03;;;;;;;51.63;36.42;;;13.80;99.90;;;;;;5060200;28;20051;-80
2022/09/24 03:35:29;;;;;;;51.22;37.25;;;13.80;99.90;;;;;;5079270;28;20039;-79
2022/09/24 03:37:54;;;;;;;46.58;35.95;;;13.80;99.90;;;;;;5062392;28;20135;-80
2022/09/24 03:40:20;;;;;;;52.58;37.63;;;13.70;99.90;;;;;;5059694;28;20051;-80
2022/09/24 03:42:46;;;;;;;47.45;37.00;;;13.70;99.90;;;;;;5061438;28;20050;-84
2022/09/24 03:45:11;;;;;;;50.83;37.55;;;13.80;99.90;;;;;;5091394;28;20068;-84
2022/09/24 03:47:37;;;;;;;49.97;35.15;;;13.70;99.90;;;;;;5080798;28;20480;-84
2022/09/24 03:50:04;;;;;;;49.85;36.25;;;13.70;99.90;;;;;;5076921;28;20143;-84
2022/09/24 03:52:29;;;;;;;50.90;37.45;;;13.70;99.90;;;;;;5058250;28;20038;-85
2022/09/24 03:54:55;;;;;;;50.65;36.20;;;13.70;99.90;;;;;;5062033;28;20071;-85
2022/09/24 03:57:21;;;;;;;52.35;38.38;;;13.70;99.90;;;;;;5062264;28;20572;-85
2022/09/24 03:59:46;;;;;;;52.22;35.65;;;13.70;99.90;;;;;;5059747;28;20032;-85
2022/09/24 04:02:12;;;;;;;47.58;35.30;;;13.70;99.90;;;;;;5074829;28;20506;-85
2022/09/24 04:04:38;;;;;;;46.42;35.58;;;13.70;99.90;;;;;;5059259;28;20032;-84
2022/09/24 04:07:05;;;;;;;51.45;36.50;;;13.70;99.90;;;;;;5076846;28;20086;-83
2022/09/24 04:09:30;;;;;;;51.97;36.60;;;13.70;99.90;;;;;;5077137;28;20036;-85
2022/09/24 04:11:57;;;;;;;45.05;36.28;;;13.70;99.90;;;;;;5076714;28;20407;-84
2022/09/24 04:14:23;;;;;;;46.97;35.47;;;13.70;99.90;;;;;;5060164;28;20488;-85
2022/09/24 04:16:49;;;;;;;47.08;35.90;;;13.70;99.90;;;;;;5076971;28;20039;-84
2022/09/24 04:19:15;;;;;;;46.15;36.22;;;13.70;99.90;;;;;;5058040;28;20024;-84
2022/09/24 04:21:50;;;;;;;46.03;34.15;;;13.70;99.90;;;;;;5084078;28;20060;-85
2022/09/24 04:24:15;;;;;;;44.10;35.15;;;13.70;99.90;;;;;;5047689;28;20646;-84
2022/09/24 04:26:41;;;;;;;46.85;35.33;;;13.70;99.90;;;;;;5079043;28;20047;-84
2022/09/24 04:29:07;;;;;;;47.75;35.38;;;13.80;99.90;;;;;;5042715;28;20045;-84
2022/09/24 04:31:33;;;;;;;46.47;36.58;;;13.70;99.90;;;;;;5054171;28;20055;-83
2022/09/24 04:33:59;;;;;;;47.90;36.30;;;13.80;99.90;;;;;;5043427;28;20032;-84
2022/09/24 04:36:25;;;;;;;46.95;36.80;;;13.80;99.90;;;;;;5060924;28;20873;-84
2022/09/24 04:38:50;;;;;;;52.20;37.70;;;13.80;99.90;;;;;;5075566;28;20048;-84
2022/09/24 04:41:16;;;;;;;51.50;36.47;;;13.80;99.90;;;;;;5077214;28;20052;-84
2022/09/24 04:43:45;;;;;;;51.15;38.05;;;13.80;99.90;;;;;;5063272;28;20043;-84
2022/09/24 04:46:11;;;;;;;48.67;35.58;;;13.70;99.90;;;;;;5060938;28;20043;-84
2022/09/24 04:48:38;;;;;;;47.63;36.33;;;13.70;99.90;;;;;;5076261;28;20036;-84
2022/09/24 04:51:07;;;;;;;48.92;36.97;;;13.70;99.90;;;;;;5077353;28;20036;-84
2022/09/24 04:53:36;;;;;;;47.30;36.05;;;13.80;99.90;;;;;;5063587;28;20717;-84
2022/09/24 04:56:10;;;;;;;49.72;36.05;;;13.70;99.90;;;;;;5060867;28;20387;-84
2022/09/24 04:58:37;;;;;;;45.95;35.00;;;13.70;99.90;;;;;;5077594;28;20032;-84
2022/09/24 05:01:02;;;;;;;47.70;36.58;;;13.70;99.90;;;;;;5046328;28;20035;-84
2022/09/24 05:03:28;;;;;;;47.15;36.38;;;13.70;99.90;;;;;;5066605;28;20089;-84
2022/09/24 05:05:55;;;;;;;49.03;36.75;;;13.70;99.90;;;;;;5061409;28;20119;-84
2022/09/24 05:08:21;;;;;;;44.35;34.40;;;13.70;99.90;;;;;;5059241;28;20070;-84
2022/09/24 05:10:47;;;;;;;48.22;34.97;;;13.70;99.90;;;;;;5077527;28;20040;-84
2022/09/24 05:13:13;;;;;;;43.42;33.92;;;13.70;99.90;;;;;;5056244;28;20115;-84
2022/09/24 05:15:38;;;;;;;40.70;32.97;;;13.70;99.90;;;;;;5068395;28;20036;-84
2022/09/24 05:18:05;;;;;;;40.38;32.72;;;13.70;99.90;;;;;;5037010;28;20041;-84
2022/09/24 05:20:31;;;;;;;42.63;32.92;;;13.70;99.90;;;;;;5038288;28;20442;-84
2022/09/24 05:22:57;;;;;;;45.10;33.22;;;13.80;99.90;;;;;;5077636;28;20044;-85
2022/09/24 05:25:23;;;;;;;43.50;32.97;;;13.80;99.90;;;;;;5052883;28;20040;-80
2022/09/24 05:27:53;;;;;;;40.20;32.00;;;13.80;99.90;;;;;;5059971;28;20036;-80
2022/09/24 05:30:21;;;;;;;39.75;31.77;;;13.70;99.90;;;;;;5056446;28;20037;-80
2022/09/24 05:32:51;;;;;;;44.22;32.13;;;13.80;99.90;;;;;;5056016;28;21036;-80
2022/09/24 05:35:21;;;;;;;39.90;30.80;;;13.80;99.90;;;;;;5058945;28;20036;-78
2022/09/24 05:37:52;;;;;;;42.58;32.17;;;13.80;99.90;;;;;;5070334;28;20565;-80
2022/09/24 05:43:03;;;;;;;42.47;31.95;;;13.80;99.90;;;;;;5051511;28;20048;-80
2022/09/24 05:45:30;;;;;;;39.72;30.92;;;13.90;99.90;;;;;;5049989;28;20037;-80
2022/09/24 05:47:56;;;;;;;39.42;30.48;;;13.80;99.90;;;;;;5059602;28;20376;-79
2022/09/24 05:50:21;;;;;;;37.92;29.88;;;13.80;99.90;;;;;;5058293;28;20044;-79
2022/09/24 05:52:47;;;;;;;40.08;29.92;;;13.80;99.90;;;;;;5062571;28;20042;-79
2022/09/24 05:55:13;;;;;;;40.50;29.65;;;13.80;99.90;;;;;;5067777;28;20064;-85
2022/09/24 05:57:39;;;;;;;43.45;30.60;;;13.80;99.90;;;;;;5064435;28;20042;-85
2022/09/24 06:00:06;;;;;;;39.55;30.85;;;13.80;99.90;;;;;;5065974;28;20120;-84
2022/09/24 06:02:31;;;;;;;37.38;29.08;;;13.80;99.90;;;;;;5051042;28;20098;-84
2022/09/24 06:04:57;;;;;;;37.08;28.08;;;13.80;99.90;;;;;;5058246;28;20032;-84
2022/09/24 06:07:23;;;;;;;36.85;28.20;;;13.90;99.90;;;;;;5053595;28;20051;-84
2022/09/24 06:09:49;;;;;;;33.55;27.33;;;13.80;99.90;;;;;;5070730;28;20075;-84
2022/09/24 06:12:16;;;;;;;35.70;28.05;;;13.80;99.90;;;;;;5065855;28;20044;-85
2022/09/24 06:14:42;;;;;;;35.97;28.17;;;13.80;99.90;;;;;;5082384;28;20065;-85
2022/09/24 06:17:08;;;;;;;38.83;28.58;;;13.90;99.90;;;;;;5064822;28;20119;-84
2022/09/24 06:19:34;;;;;;;35.13;27.35;;;13.80;99.90;;;;;;5064374;28;20395;-84
2022/09/24 06:22:01;;;;;;;36.50;26.42;;;13.90;99.90;;;;;;5062493;28;20040;-85
2022/09/24 06:24:27;;;;;;;32.35;25.85;;;13.90;99.90;;;;;;5061518;28;20039;-85
2022/09/24 06:26:53;;;;;;;32.70;25.77;;;13.90;99.90;;;;;;5077469;28;20107;-85
2022/09/24 06:29:18;;;;;;;34.85;25.88;;;13.90;99.90;;;;;;5069662;28;20037;-84
2022/09/24 06:31:45;;;;;;;31.77;24.67;;;13.80;99.90;;;;;;5082345;28;20136;-83
2022/09/24 06:34:11;;;;;;;35.20;26.25;;;13.90;99.90;;;;;;5083504;28;20047;-83
2022/09/24 06:36:37;;;;;;;31.88;26.13;;;13.90;99.90;;;;;;5088534;28;20827;-84
2022/09/24 06:39:02;;;;;;;33.85;25.73;;;13.90;99.90;;;;;;5049362;28;20043;-83
2022/09/24 06:41:28;;;;;;;32.47;25.67;;;13.90;99.90;;;;;;5046789;28;20040;-83
2022/09/24 06:43:55;;;;;;;31.38;23.77;;;13.90;99.90;;;;;;5052531;28;20052;-84
2022/09/24 06:46:24;;;;;;;31.17;23.65;;;13.90;99.90;;;;;;5048839;28;20052;-85
2022/09/24 06:48:50;;;;;;;31.90;23.13;;;13.90;99.90;;;;;;5046997;28;20040;-78
2022/09/24 06:51:16;;;;;;;31.00;22.23;;;13.80;99.90;;;;;;5036918;28;20068;-80
2022/09/24 06:53:42;;;;;;;29.42;22.05;;;13.90;99.90;;;;;;5041545;28;20070;-81
2022/09/24 06:56:08;;;;;;;28.08;21.55;;;13.80;99.90;;;;;;5058163;28;20032;-81
2022/09/24 06:58:34;;;;;;;26.40;20.52;;;13.90;99.90;;;;;;5024744;28;20037;-81
2022/09/24 07:01:01;;;;;;;29.42;22.63;;;13.80;99.90;;;;;;5036649;28;20052;-80
2022/09/24 07:03:29;;;;;;;27.38;20.95;;;13.80;99.90;;;;;;5055246;28;20044;-80
2022/09/24 07:05:59;;;;;;;30.08;22.05;;;13.80;99.90;;;;;;5053849;28;20047;-80
2022/09/24 07:08:25;;;;;;;26.40;21.08;;;13.90;99.90;;;;;;5055855;28;20500;-80
2022/09/24 07:10:51;;;;;;;30.00;22.05;;;13.90;99.90;;;;;;5055056;28;20044;-79
2022/09/24 07:13:20;;;;;;;27.92;21.08;;;13.90;99.90;;;;;;5037748;28;20076;-80
2022/09/24 07:15:46;;;;;;;28.58;21.90;;;13.80;99.90;;;;;;5056665;28;20036;-79
2022/09/24 07:18:12;;;;;;;31.95;21.83;;;13.90;99.90;;;;;;5055783;28;20044;-79
2022/09/24 07:20:38;;;;;;;29.15;21.45;;;13.80;99.90;;;;;;5058963;28;20037;-79
2022/09/24 07:23:05;;;;;;;29.15;21.50;;;13.80;99.90;;;;;;5063753;28;20076;-79
2022/09/24 07:25:32;;;;;;;30.95;22.75;;;13.80;99.90;;;;;;5066410;28;20036;-81
2022/09/24 07:28:10;;;;;;;27.48;20.40;;;13.90;99.90;;;;;;5057307;28;20055;-80
2022/09/24 07:30:36;;;;;;;26.80;19.85;;;13.80;99.90;;;;;;5038793;28;20032;-78
2022/09/24 07:33:02;;;;;;;28.85;21.25;;;13.80;99.90;;;;;;5049271;28;20032;-78
2022/09/24 07:35:28;;;;;;;29.83;22.55;;;13.90;99.90;;;;;;5037488;28;20088;-79
2022/09/24 07:37:57;;;;;;;25.88;19.83;;;13.90;99.90;;;;;;5033992;28;20071;-80
2022/09/24 07:40:23;;;;;;;25.88;19.52;;;13.90;99.90;;;;;;5054380;28;20055;-79
2022/09/24 07:42:49;;;;;;;25.52;19.08;;;13.80;99.90;;;;;;5055162;28;20044;-79
2022/09/24 07:45:16;;;;;;;26.15;18.92;;;13.90;99.90;;;;;;5075038;28;20783;-79
2022/09/24 07:47:42;;;;;;;25.05;18.33;;;13.90;99.90;;;;;;5052864;28;20135;-79
2022/09/24 07:50:08;;;;;;;23.15;17.55;;;13.90;99.90;;;;;;5042094;28;20040;-79
2022/09/24 07:52:34;;;;;;;23.15;17.70;;;13.90;99.90;;;;;;5056978;28;20087;-79
2022/09/24 07:55:00;;;;;;;24.33;16.92;;;13.90;99.90;;;;;;5053567;28;20067;-78
2022/09/24 07:57:26;;;;;;;24.45;17.67;;;14.00;99.90;;;;;;5072388;28;20123;-78
2022/09/24 07:59:52;;;;;;;22.27;16.60;;;14.00;99.90;;;;;;5039029;28;20048;-79
2022/09/24 08:02:19;;;;;;;23.30;17.35;;;14.00;99.90;;;;;;5056620;28;20036;-79
2022/09/24 08:04:45;;;;;;;23.55;17.00;;;14.10;99.90;;;;;;5054289;28;20039;-79
2022/09/24 08:07:14;;;;;;;24.80;17.38;;;14.00;99.90;;;;;;5056023;28;20028;-78
2022/09/24 08:09:39;;;;;;;22.67;16.30;;;14.10;99.90;;;;;;5063562;28;20039;-79
2022/09/24 08:12:06;;;;;;;22.10;15.73;;;14.10;99.90;;;;;;5051116;28;20047;-80
2022/09/24 08:14:32;;;;;;;21.77;15.63;;;14.10;99.90;;;;;;5087954;28;20044;-78
2022/09/24 08:16:58;;;;;;;21.23;15.45;;;14.20;99.90;;;;;;5068223;28;20086;-79
2022/09/24 08:19:23;;;;;;;18.33;14.07;;;14.20;99.90;;;;;;5063407;28;20040;-79
2022/09/24 08:21:49;;;;;;;18.88;14.43;;;14.20;99.90;;;;;;5067321;28;20037;-79
2022/09/24 08:24:16;;;;;;;21.10;14.70;;;14.20;99.90;;;;;;5070681;28;20041;-79
2022/09/24 08:26:42;;;;;;;20.10;14.77;;;14.30;99.90;;;;;;5070294;28;20102;-79
2022/09/24 08:29:07;;;;;;;18.55;14.45;;;14.30;99.90;;;;;;5070892;28;20067;-79
2022/09/24 08:31:33;;;;;;;19.05;14.18;;;14.30;99.90;;;;;;5053080;28;20071;-79
2022/09/24 08:34:00;;;;;;;20.95;14.40;;;14.30;99.90;;;;;;5055206;28;20137;-79
2022/09/24 08:36:29;;;;;;;18.90;12.75;;;14.30;99.90;;;;;;5072778;28;20040;-79
2022/09/24 08:38:55;;;;;;;14.93;11.02;;;14.40;99.90;;;;;;5057444;28;20042;-79
2022/09/24 08:41:47;;;;;;;16.85;11.02;;;14.40;99.90;;;;;;5036700;28;20043;-79
2022/09/24 08:47:42;;;;;;;13.48;9.52;;;14.40;99.90;;;;;;5050331;28;20054;-79
2022/09/24 08:50:16;;;;;;;15.90;9.70;;;14.40;99.90;;;;;;5026414;28;20059;-79
2022/09/24 08:52:41;;;;;;;14.52;9.82;;;14.50;99.90;;;;;;5053508;28;20048;-79
2022/09/24 08:55:21;;;;;;;18.90;12.13;;;14.50;99.90;;;;;;5054702;28;20362;-80
2022/09/24 08:58:16;;;;;;;20.77;11.77;;;14.50;99.90;;;;;;5053687;28;20044;-79
2022/09/24 09:00:48;;;;;;;17.42;10.95;;;14.60;99.90;;;;;;5049636;28;20591;-79
2022/09/24 09:03:43;;;;;;;18.42;11.27;;;14.60;99.90;;;;;;5050751;28;20155;-79
2022/09/24 09:06:12;;;;;;;19.40;10.32;;;14.60;99.90;;;;;;5042755;28;20481;-79
2022/09/24 09:08:40;;;;;;;20.55;10.52;;;14.70;99.90;;;;;;5029501;28;20080;-79
2022/09/24 09:11:11;;;;;;;21.25;11.57;;;14.70;99.90;;;;;;5036012;28;20091;-79
2022/09/24 09:13:51;;;;;;;19.98;9.73;;;14.80;99.90;;;;;;5066319;28;20166;-79
2022/09/24 09:16:17;;;;;;;15.70;8.70;;;14.80;99.90;;;;;;5035710;28;20557;-79
2022/09/24 09:18:46;;;;;;;16.40;8.35;;;14.80;99.90;;;;;;5036990;28;20116;-79
2022/09/24 09:21:30;;;;;;;17.52;7.80;;;14.90;99.90;;;;;;5037786;28;20553;-79
2022/09/24 09:24:00;;;;;;;17.63;8.57;;;14.90;99.90;;;;;;5036978;28;20058;-79
2022/09/24 09:26:26;;;;;;;21.80;7.72;;;14.90;99.90;;;;;;5053464;28;20048;-79
2022/09/24 09:28:57;;;;;;;13.65;6.70;;;14.90;99.90;;;;;;5037205;28;20568;-79
2022/09/24 09:31:42;;;;;;;15.07;6.10;;;14.90;99.90;;;;;;5050557;28;20043;-79
2022/09/24 09:34:30;;;;;;;14.18;5.55;;;14.90;99.90;;;;;;5038470;28;20036;-79
2022/09/24 09:37:30;;;;;;;15.73;4.75;;;15.00;99.90;;;;;;5050152;28;20043;-76
2022/09/24 09:40:09;;;;;;;11.18;3.75;;;15.00;99.90;;;;;;5063177;28;20087;-77
2022/09/24 09:42:38;;;;;;;14.20;2.88;;;15.10;99.90;;;;;;5065979;28;20048;-77
2022/09/24 09:45:17;;;;;;;12.32;2.92;;;15.10;99.90;;;;;;5080659;28;20059;-78
2022/09/24 09:47:48;;;;;;;9.70;2.15;;;15.10;99.90;;;;;;5063402;28;20035;-78
2022/09/24 09:50:35;;;;;;;13.10;2.78;;;15.10;99.90;;;;;;5061697;28;20039;-78
2022/09/24 09:53:01;;;;;;;12.57;2.60;;;15.20;99.90;;;;;;5061095;28;20044;-78
2022/09/24 09:55:31;;;;;;;14.55;2.40;;;15.20;99.90;;;;;;5043555;28;20147;-78
2022/09/24 09:58:14;;;;;;;15.85;2.30;;;15.20;99.90;;;;;;5059779;28;20042;-79
2022/09/24 10:00:40;;;;;;;10.38;2.25;;;15.20;99.90;;;;;;5075010;28;20039;-78
2022/09/24 10:03:25;;;;;;;11.07;1.85;;;15.10;99.90;;;;;;5066359;28;20036;-79
2022/09/24 10:06:04;;;;;;;11.25;2.08;;;15.10;99.90;;;;;;5077494;28;20048;-79
2022/09/24 10:08:30;;;;;;;13.90;1.95;;;15.00;99.90;;;;;;5070022;28;20043;-79
2022/09/24 10:10:58;;;;;;;11.55;1.90;;;15.00;99.90;;;;;;5055696;28;20043;-79
2022/09/24 10:13:25;;;;;;;7.22;1.55;;;14.90;99.90;;;;;;5059901;28;20043;-78
2022/09/24 10:15:52;;;;;;;11.70;1.77;;;14.90;99.90;;;;;;5061171;28;20051;-78
2022/09/24 10:18:28;;;;;;;10.35;1.83;;;14.80;99.90;;;;;;5077957;28;20039;-78
2022/09/24 10:20:56;;;;;;;12.60;2.72;;;14.90;99.90;;;;;;5077851;28;20074;-78
2022/09/24 10:23:39;;;;;;;9.18;1.60;;;14.90;99.90;;;;;;5077857;28;20055;-78
2022/09/24 10:26:06;;;;;;;9.35;1.95;;;14.90;99.90;;;;;;5090526;28;20051;-79
2022/09/24 10:31:22;;;;;;;9.95;1.60;;;15.10;99.90;;;;;;5076528;28;20055;-78
2022/09/24 10:33:51;;;;;;;6.55;1.70;;;15.10;99.90;;;;;;5075852;28;20423;-78
2022/09/24 10:36:26;;;;;;;4.95;1.40;;;15.20;99.90;;;;;;5076580;28;20047;-78
2022/09/24 10:39:12;;;;;;;8.40;1.90;;;15.20;99.90;;;;;;5060530;28;20091;-79
2022/09/24 10:41:48;;;;;;;10.85;1.83;;;15.20;99.90;;;;;;5060852;28;20458;-79
2022/09/24 10:44:15;;;;;;;;;;;15.20;99.90;;;;;;5077813;28;20079;-78
2022/09/24 10:47:03;;;;;;;10.05;1.83;;;15.20;99.90;;;;;;5073970;28;20376;-78
2022/09/24 10:49:49;;;;;;;9.50;1.90;;;15.20;99.90;;;;;;5061559;28;20488;-78
2022/09/24 10:52:30;;;;;;;6.07;1.67;;;15.30;99.90;;;;;;5054973;28;20066;-78
2022/09/24 10:55:34;;;;;;;8.18;1.70;;;15.40;99.90;;;;;;5059543;28;20044;-77
2022/09/24 10:58:35;;;;;;;7.20;1.60;;;15.40;99.90;;;;;;5075431;28;20044;-78
2022/09/24 11:01:18;;;;;;;6.45;1.70;;;15.40;99.90;;;;;;5074653;28;20043;-78
2022/09/24 11:03:49;;;;;;;9.23;1.70;;;15.40;99.90;;;;;;5060505;28;20488;-81
2022/09/24 11:06:23;;;;;;;7.57;1.73;;;15.40;99.90;;;;;;5074804;28;20047;-81
2022/09/24 11:08:58;;;;;;;7.15;1.45;;;15.40;99.90;;;;;;5077595;28;20043;-82
2022/09/24 11:11:40;;;;;;;6.15;1.45;;;15.50;99.90;;;;;;5076503;28;20488;-82
2022/09/24 11:14:44;;;;;;;11.95;1.90;;;15.50;99.90;;;;;;5077577;28;20457;-82
2022/09/24 11:17:15;;;;;;;7.75;1.48;;;15.60;99.90;;;;;;5075279;28;20098;-83
2022/09/24 11:19:59;;;;;;;7.00;1.40;;;15.60;99.90;;;;;;5058889;28;20067;-81
2022/09/24 11:22:40;;;;;;;5.90;1.70;;;15.60;99.90;;;;;;5071636;28;20040;-81
2022/09/24 11:25:21;;;;;;;5.90;1.30;;;15.70;99.90;;;;;;5052780;28;20643;-82
2022/09/24 11:28:20;;;;;;;5.32;1.55;;;15.50;99.90;;;;;;5077202;28;20047;-82
2022/09/24 11:31:05;;;;;;;6.78;1.40;;;15.50;99.90;;;;;;5078473;28;20122;-82
2022/09/24 11:33:59;;;;;;;7.03;1.63;;;15.40;99.90;;;;;;5048455;28;20492;-81
2022/09/24 11:36:39;;;;;;;6.78;2.00;;;15.40;99.90;;;;;;5079719;28;20028;-79
2022/09/24 11:39:26;;;;;;;6.88;1.92;;;15.40;99.90;;;;;;5067935;28;20040;-81
2022/09/24 11:42:02;;;;;;;9.00;2.15;;;15.40;99.90;;;;;;5053670;28;20044;-79
2022/09/24 11:44:51;;;;;;;;;;;15.40;99.90;;;;;;5075618;28;20044;-79
2022/09/24 11:47:25;;;;;;;7.18;2.40;;;15.30;99.90;;;;;;5056960;28;19987;-79
2022/09/24 11:50:14;;;;;;;6.38;1.33;;;15.40;99.90;;;;;;5058028;28;20263;-79
2022/09/24 11:52:48;;;;;;;7.57;1.20;;;15.40;99.90;;;;;;5069364;28;20063;-79
2022/09/24 11:55:33;;;;;;;5.45;1.42;;;15.40;99.90;;;;;;5049866;28;20071;-79
2022/09/24 11:58:33;;;;;;;5.30;1.38;;;15.40;99.90;;;;;;5075111;28;20052;-79
2022/09/24 12:01:05;;;;;;;11.57;1.33;;;15.40;99.90;;;;;;5054710;28;20493;-79
2022/09/24 12:03:43;;;;;;;5.57;1.52;;;15.50;99.90;;;;;;5058301;28;20498;-79
2022/09/24 12:06:51;;;;;;;5.45;1.30;;;15.50;99.90;;;;;;5077173;28;20607;-80
2022/09/24 12:09:41;;;;;;;7.47;1.70;;;15.40;99.90;;;;;;5065207;28;20105;-80
2022/09/24 12:12:09;;;;;;;6.10;1.40;;;15.40;99.90;;;;;;5059646;28;20495;-79
2022/09/24 12:15:08;;;;;;;7.28;1.35;;;15.40;99.90;;;;;;5060735;28;20039;-79
2022/09/24 12:17:40;;;;;;;7.18;2.22;;;15.30;99.90;;;;;;5030720;28;20131;-78
2022/09/24 12:20:19;;;;;;;7.40;1.60;;;15.30;99.90;;;;;;5096037;28;20036;-79
2022/09/24 12:22:48;;;;;;;8.43;1.92;;;15.30;99.90;;;;;;5060611;28;20439;-79
2022/09/24 12:25:14;;;;;;;6.03;1.67;;;15.30;99.90;;;;;;5047760;28;20044;-79
2022/09/24 12:27:41;;;;;;;5.90;1.52;;;15.20;99.90;;;;;;5059426;28;20122;-78
2022/09/24 12:33:36;;;;;;;8.80;1.88;;;15.30;99.90;;;;;;5076564;28;20047;-79
2022/09/24 12:36:35;;;;;;;6.88;1.48;;;15.40;99.90;;;;;;5068485;28;20045;-79
2022/09/24 12:39:11;;;;;;;11.77;2.05;;;15.40;99.90;;;;;;5048377;28;20049;-79
2022/09/24 12:41:47;;;;;;;7.28;1.55;;;15.50;99.90;;;;;;5041285;28;20130;-79
2022/09/24 12:44:16;;;;;;;;;;;15.50;99.90;;;;;;5056997;28;20495;-79
2022/09/24 12:46:53;;;;;;;5.10;1.17;;;15.50;99.90;;;;;;5054961;28;19927;-79
2022/09/24 12:49:35;;;;;;;4.68;1.33;;;15.40;99.90;;;;;;5038216;28;20503;-79
2022/09/24 12:52:14;;;;;;;7.20;1.20;;;15.30;99.90;;;;;;5059015;28;20485;-79
2022/09/24 12:54:41;;;;;;;3.85;1.20;;;15.20;99.90;;;;;;5038213;28;20523;-79
2022/09/24 12:57:22;;;;;;;7.97;1.63;;;15.10;99.90;;;;;;5021619;28;20040;-78
2022/09/24 12:59:50;;;;;;;6.55;1.50;;;14.90;99.90;;;;;;5054555;28;20108;-80
2022/09/24 13:02:20;;;;;;;9.10;1.35;;;14.90;99.90;;;;;;5050761;28;20036;-79
2022/09/24 13:04:50;;;;;;;9.32;1.90;;;14.80;99.90;;;;;;5036404;28;20049;-79
2022/09/24 13:07:35;;;;;;;6.50;1.60;;;14.80;99.90;;;;;;5055385;28;20036;-79
2022/09/24 13:10:14;;;;;;;7.30;1.70;;;14.70;99.90;;;;;;5070629;28;20099;-79
2022/09/24 13:12:40;;;;;;;6.13;1.77;;;14.70;99.90;;;;;;5056112;28;20052;-78
2022/09/24 13:15:19;;;;;;;6.80;1.70;;;14.70;99.90;;;;;;5039562;28;20036;-79